createdAt,value
2023-05-06T00:01:58.076Z,93.83
2023-05-06T00:04:24.804Z,94.20
2023-05-06T00:06:51.499Z,93.90
2023-05-06T00:09:18.137Z,93.40
2023-05-06T00:11:45.878Z,93.31
2023-05-06T00:14:12.539Z,94.01
2023-05-06T00:16:39.234Z,95.55
2023-05-06T00:19:06.202Z,95.63
2023-05-06T00:21:32.754Z,95.34
2023-05-06T00:23:59.508Z,95.67
2023-05-06T00:26:26.198Z,96.23
2023-05-06T00:28:52.800Z,95.78
2023-05-06T00:31:19.454Z,95.85
2023-05-06T00:33:46.035Z,97.07
2023-05-06T00:36:12.766Z,98.12
2023-05-06T00:38:39.384Z,98.47
2023-05-06T00:41:06.242Z,98.32
2023-05-06T00:43:32.832Z,97.95
2023-05-06T00:45:59.538Z,97.02
2023-05-06T00:48:26.251Z,97.10
2023-05-06T00:50:53.062Z,96.14
2023-05-06T00:53:21.915Z,96.35
2023-05-06T00:55:49.921Z,95.87
2023-05-06T00:58:17.069Z,95.22
2023-05-06T01:00:44.662Z,95.72
2023-05-06T01:03:11.610Z,94.89
2023-05-06T01:06:04.605Z,95.13
2023-05-06T01:08:37.531Z,95.17
2023-05-06T01:11:37.383Z,94.88
2023-05-06T01:14:33.336Z,96.04
2023-05-06T01:17:04.362Z,96.00
2023-05-06T01:19:42.053Z,96.36
2023-05-06T01:22:10.382Z,96.32
2023-05-06T01:24:41.841Z,96.23
2023-05-06T01:27:09.893Z,95.70
2023-05-06T01:29:39.085Z,96.11
2023-05-06T01:32:36.261Z,95.82
2023-05-06T01:35:29.020Z,96.34
2023-05-06T01:38:01.430Z,96.82
2023-05-06T01:40:30.337Z,96.26
2023-05-06T01:42:57.616Z,96.58
2023-05-06T01:45:27.813Z,97.45
2023-05-06T01:47:54.764Z,97.08
2023-05-06T01:50:21.672Z,97.19
2023-05-06T01:53:08.911Z,97.12
2023-05-06T01:55:35.480Z,97.26
2023-05-06T01:58:02.229Z,97.63
2023-05-06T02:00:28.865Z,97.32
2023-05-06T02:02:55.538Z,97.14
2023-05-06T02:05:22.224Z,97.25
2023-05-06T02:07:48.812Z,97.13
2023-05-06T02:10:15.430Z,97.78
2023-05-06T02:12:42.035Z,98.22
2023-05-06T02:15:09.302Z,98.17
2023-05-06T02:17:37.739Z,98.35
2023-05-06T02:20:04.900Z,97.98
2023-05-06T02:22:31.655Z,97.96
2023-05-06T02:24:58.196Z,98.14
2023-05-06T02:27:24.745Z,98.13
2023-05-06T02:29:51.335Z,97.64
2023-05-06T02:32:17.925Z,97.53
2023-05-06T02:34:44.451Z,97.65
2023-05-06T02:37:11.023Z,97.72
2023-05-06T02:39:37.604Z,98.18
2023-05-06T02:42:04.517Z,98.83
2023-05-06T02:44:31.422Z,99.72
2023-05-06T02:46:57.976Z,100.00
2023-05-06T02:49:24.657Z,100.00
2023-05-06T02:51:51.236Z,100.00
2023-05-06T02:54:17.796Z,100.00
2023-05-06T02:56:46.317Z,100.00
2023-05-06T02:59:13.739Z,100.00
2023-05-06T03:01:40.671Z,100.00
2023-05-06T03:04:07.383Z,99.98
2023-05-06T03:06:34.019Z,100.00
2023-05-06T03:09:00.561Z,100.00
2023-05-06T03:11:27.144Z,100.00
2023-05-06T03:13:53.716Z,100.00
2023-05-06T03:16:20.445Z,100.00
2023-05-06T03:18:47.043Z,100.00
2023-05-06T03:21:14.217Z,100.00
2023-05-06T03:23:40.812Z,100.00
2023-05-06T03:26:07.441Z,100.00
2023-05-06T03:28:34.082Z,100.00
2023-05-06T03:31:00.721Z,100.00
2023-05-06T03:33:27.262Z,100.00
2023-05-06T03:35:53.877Z,100.00
2023-05-06T03:38:20.461Z,99.88
2023-05-06T03:40:47.280Z,100.00
2023-05-06T03:43:13.849Z,100.00
2023-05-06T03:45:40.529Z,100.00
2023-05-06T03:48:07.125Z,100.00
2023-05-06T03:50:33.858Z,100.00
2023-05-06T03:53:00.552Z,100.00
2023-05-06T03:55:27.142Z,100.00
2023-05-06T03:57:53.730Z,100.00
2023-05-06T04:00:20.797Z,100.00
2023-05-06T04:02:47.406Z,100.00
2023-05-06T04:05:14.146Z,100.00
2023-05-06T04:07:40.713Z,100.00
2023-05-06T04:10:08.088Z,100.00
2023-05-06T04:12:34.690Z,100.00
2023-05-06T04:15:01.297Z,100.00
2023-05-06T04:17:27.919Z,100.00
2023-05-06T04:19:54.503Z,100.00
2023-05-06T04:22:21.272Z,100.00
2023-05-06T04:24:47.863Z,100.00
2023-05-06T04:27:15.105Z,100.00
2023-05-06T04:29:41.719Z,100.00
2023-05-06T04:32:10.294Z,100.00
2023-05-06T04:34:36.940Z,100.00
2023-05-06T04:37:03.776Z,100.00
2023-05-06T04:39:31.959Z,100.00
2023-05-06T04:41:58.621Z,100.00
2023-05-06T04:44:25.229Z,100.00
2023-05-06T04:46:51.820Z,100.00
2023-05-06T04:49:18.363Z,100.00
2023-05-06T04:51:44.967Z,100.00
2023-05-06T04:54:11.586Z,100.00
2023-05-06T04:56:38.469Z,100.00
2023-05-06T04:59:05.064Z,100.00
2023-05-06T05:01:31.717Z,100.00
2023-05-06T05:03:58.327Z,100.00
2023-05-06T05:06:24.969Z,100.00
2023-05-06T05:08:51.573Z,100.00
2023-05-06T05:11:18.224Z,100.00
2023-05-06T05:13:44.903Z,100.00
2023-05-06T05:16:11.471Z,100.00
2023-05-06T05:18:38.066Z,100.00
2023-05-06T05:21:04.775Z,100.00
2023-05-06T05:23:31.336Z,100.00
2023-05-06T05:25:57.937Z,100.00
2023-05-06T05:28:24.504Z,100.00
2023-05-06T05:30:51.244Z,100.00
2023-05-06T05:33:17.947Z,100.00
2023-05-06T05:35:44.602Z,100.00
2023-05-06T05:38:12.992Z,100.00
2023-05-06T05:40:39.616Z,100.00
2023-05-06T05:43:06.187Z,100.00
2023-05-06T05:45:32.746Z,100.00
2023-05-06T05:47:59.352Z,100.00
2023-05-06T05:50:26.363Z,100.00
2023-05-06T05:52:52.964Z,100.00
2023-05-06T05:55:19.620Z,100.00
2023-05-06T05:57:46.163Z,100.00
2023-05-06T06:00:13.836Z,100.00
2023-05-06T06:02:41.215Z,100.00
2023-05-06T06:05:08.280Z,100.00
2023-05-06T06:07:34.994Z,100.00
2023-05-06T06:10:01.566Z,100.00
2023-05-06T06:12:28.154Z,100.00
2023-05-06T06:14:54.747Z,100.00
2023-05-06T06:17:21.504Z,99.63
2023-05-06T06:19:48.087Z,99.03
2023-05-06T06:22:14.654Z,95.81
2023-05-06T06:24:41.410Z,95.31
2023-05-06T06:27:07.996Z,93.11
2023-05-06T06:29:34.559Z,91.24
2023-05-06T06:32:03.545Z,90.86
2023-05-06T06:34:30.367Z,88.84
2023-05-06T06:36:56.914Z,87.31
2023-05-06T06:39:23.564Z,86.43
2023-05-06T06:41:50.223Z,85.21
2023-05-06T06:44:16.877Z,84.81
2023-05-06T06:46:43.477Z,83.96
2023-05-06T06:49:10.072Z,84.01
2023-05-06T06:51:36.670Z,82.59
2023-05-06T06:54:03.314Z,81.78
2023-05-06T06:56:29.966Z,79.78
2023-05-06T06:58:56.523Z,77.56
2023-05-06T07:01:23.134Z,76.83
2023-05-06T07:03:49.807Z,77.91
2023-05-06T07:06:16.412Z,75.61
2023-05-06T07:08:42.955Z,74.43
2023-05-06T07:11:09.554Z,74.97
2023-05-06T07:13:36.491Z,73.64
2023-05-06T07:16:03.217Z,73.05
2023-05-06T07:18:29.823Z,72.70
2023-05-06T07:20:56.528Z,72.72
2023-05-06T07:23:23.159Z,73.19
2023-05-06T07:25:50.139Z,70.50
2023-05-06T07:28:16.755Z,71.69
2023-05-06T07:30:43.464Z,71.70
2023-05-06T07:33:10.117Z,70.92
2023-05-06T07:35:37.540Z,68.77
2023-05-06T07:38:04.294Z,71.23
2023-05-06T07:40:30.918Z,69.58
2023-05-06T07:42:57.552Z,70.45
2023-05-06T07:45:25.187Z,69.90
2023-05-06T07:47:52.068Z,68.23
2023-05-06T07:50:18.819Z,66.88
2023-05-06T07:52:45.512Z,65.98
2023-05-06T07:55:12.300Z,65.44
2023-05-06T07:57:39.096Z,62.97
2023-05-06T08:00:06.530Z,64.90
2023-05-06T08:02:33.307Z,62.34
2023-05-06T08:05:00.273Z,61.20
2023-05-06T08:07:26.841Z,64.02
2023-05-06T08:09:53.518Z,64.80
2023-05-06T08:12:20.048Z,63.26
2023-05-06T08:14:46.851Z,61.84
2023-05-06T08:17:13.705Z,59.96
2023-05-06T08:19:40.500Z,58.20
2023-05-06T08:22:07.107Z,59.70
2023-05-06T08:24:33.759Z,62.19
2023-05-06T08:27:00.320Z,58.84
2023-05-06T08:29:26.866Z,58.58
2023-05-06T08:31:53.580Z,57.05
2023-05-06T08:34:21.286Z,57.43
2023-05-06T08:36:48.932Z,58.46
2023-05-06T08:39:15.594Z,58.75
2023-05-06T08:41:48.436Z,58.48
2023-05-06T08:44:18.771Z,56.56
2023-05-06T08:46:46.821Z,56.47
2023-05-06T08:49:13.482Z,53.63
2023-05-06T08:51:43.940Z,56.75
2023-05-06T08:54:12.460Z,56.78
2023-05-06T08:56:42.156Z,54.88
2023-05-06T08:59:13.638Z,54.42
2023-05-06T09:01:40.958Z,54.30
2023-05-06T09:04:08.072Z,54.22
2023-05-06T09:06:34.820Z,54.99
2023-05-06T09:09:01.352Z,54.13
2023-05-06T09:11:30.022Z,52.07
2023-05-06T09:14:12.883Z,51.75
2023-05-06T09:16:44.155Z,48.39
2023-05-06T09:19:11.157Z,48.39
2023-05-06T09:21:44.110Z,51.77
2023-05-06T09:24:11.970Z,49.52
2023-05-06T09:26:42.701Z,48.96
2023-05-06T09:29:09.920Z,48.20
2023-05-06T09:31:47.289Z,47.20
2023-05-06T09:34:15.682Z,47.52
2023-05-06T09:36:42.367Z,47.74
2023-05-06T09:39:10.205Z,46.28
2023-05-06T09:41:37.481Z,47.42
2023-05-06T09:44:04.459Z,44.71
2023-05-06T09:46:31.432Z,42.12
2023-05-06T09:48:58.982Z,43.10
2023-05-06T09:51:27.971Z,43.69
2023-05-06T09:53:57.035Z,41.04
2023-05-06T09:56:24.917Z,41.69
2023-05-06T09:58:52.564Z,44.65
2023-05-06T10:01:32.637Z,43.92
2023-05-06T10:04:06.096Z,41.13
2023-05-06T10:06:35.618Z,40.85
2023-05-06T10:09:02.568Z,42.21
2023-05-06T10:11:31.351Z,42.61
2023-05-06T10:14:00.369Z,41.02
2023-05-06T10:16:27.600Z,41.75
2023-05-06T10:18:55.506Z,40.05
2023-05-06T10:21:27.708Z,39.97
2023-05-06T10:24:01.168Z,39.50
2023-05-06T10:26:31.030Z,36.48
2023-05-06T10:29:01.278Z,36.45
2023-05-06T10:31:30.101Z,36.57
2023-05-06T10:34:01.088Z,37.14
2023-05-06T10:36:32.160Z,38.05
2023-05-06T10:39:03.893Z,37.08
2023-05-06T10:41:31.365Z,35.71
2023-05-06T10:43:59.424Z,35.83
2023-05-06T10:46:29.920Z,35.34
2023-05-06T10:49:08.976Z,36.14
2023-05-06T10:51:36.577Z,36.29
2023-05-06T10:54:10.846Z,36.39
2023-05-06T10:57:02.665Z,37.28
2023-05-06T10:59:30.058Z,38.71
2023-05-06T11:02:08.474Z,39.35
2023-05-06T11:04:35.659Z,38.61
2023-05-06T11:07:11.785Z,36.78
2023-05-06T11:09:54.000Z,37.40
2023-05-06T11:12:21.965Z,38.31
2023-05-06T11:14:48.551Z,38.17
2023-05-06T11:17:34.223Z,37.87
2023-05-06T11:20:21.402Z,37.76
2023-05-06T11:22:48.063Z,37.82
2023-05-06T11:25:14.997Z,36.45
2023-05-06T11:27:42.737Z,36.37
2023-05-06T11:30:14.789Z,36.30
2023-05-06T11:32:44.035Z,35.98
2023-05-06T11:35:11.880Z,36.58
2023-05-06T11:37:38.504Z,36.65
2023-05-06T11:40:14.142Z,36.05
2023-05-06T11:42:41.080Z,37.05
2023-05-06T11:45:08.782Z,36.12
2023-05-06T11:47:35.682Z,35.96
2023-05-06T11:50:07.546Z,37.10
2023-05-06T11:52:35.657Z,38.61
2023-05-06T11:55:02.251Z,37.36
2023-05-06T11:57:29.971Z,38.25
2023-05-06T11:59:56.560Z,37.67
2023-05-06T12:02:23.189Z,36.52
2023-05-06T12:04:53.272Z,37.71
2023-05-06T12:07:20.038Z,38.60
2023-05-06T12:09:48.956Z,39.27
2023-05-06T12:12:17.927Z,38.50
2023-05-06T12:14:46.366Z,38.90
2023-05-06T12:17:13.646Z,38.43
2023-05-06T12:19:40.558Z,38.73
2023-05-06T12:22:18.385Z,39.31
2023-05-06T12:24:46.219Z,40.23
2023-05-06T12:27:12.916Z,40.09
2023-05-06T12:29:39.669Z,41.52
2023-05-06T12:32:10.571Z,40.80
2023-05-06T12:34:41.397Z,40.82
2023-05-06T12:37:11.499Z,41.60
2023-05-06T12:39:39.627Z,42.25
2023-05-06T12:42:06.663Z,42.38
2023-05-06T12:44:38.614Z,41.86
2023-05-06T12:47:10.014Z,41.68
2023-05-06T12:49:48.686Z,42.73
2023-05-06T12:52:16.786Z,42.97
2023-05-06T12:54:43.484Z,42.56
2023-05-06T12:57:10.234Z,43.09
2023-05-06T12:59:37.371Z,42.88
2023-05-06T13:02:05.467Z,42.04
2023-05-06T13:04:32.380Z,41.51
2023-05-06T13:06:58.972Z,41.78
2023-05-06T13:09:25.992Z,43.21
2023-05-06T13:11:52.863Z,42.41
2023-05-06T13:14:19.544Z,41.11
2023-05-06T13:16:46.560Z,41.77
2023-05-06T13:19:31.027Z,41.79
2023-05-06T13:21:58.947Z,41.75
2023-05-06T13:24:25.646Z,41.51
2023-05-06T13:26:52.445Z,41.93
2023-05-06T13:29:19.108Z,42.60
2023-05-06T13:31:46.060Z,41.66
2023-05-06T13:34:12.857Z,41.35
2023-05-06T13:36:39.481Z,40.90
2023-05-06T13:39:06.071Z,41.74
2023-05-06T13:41:32.855Z,40.89
2023-05-06T13:43:59.509Z,40.59
2023-05-06T13:46:29.417Z,42.16
2023-05-06T13:48:56.104Z,43.81
2023-05-06T13:51:22.753Z,43.77
2023-05-06T13:53:49.423Z,44.28
2023-05-06T13:56:15.964Z,43.91
2023-05-06T13:58:42.574Z,45.45
2023-05-06T14:01:09.145Z,45.31
2023-05-06T14:03:35.861Z,45.01
2023-05-06T14:06:02.471Z,46.95
2023-05-06T14:08:29.036Z,46.63
2023-05-06T14:10:55.607Z,46.16
2023-05-06T14:13:22.226Z,47.15
2023-05-06T14:15:48.955Z,47.41
2023-05-06T14:18:15.944Z,47.23
2023-05-06T14:20:42.574Z,47.47
2023-05-06T14:23:09.139Z,48.53
2023-05-06T14:25:35.803Z,47.93
2023-05-06T14:28:02.425Z,48.00
2023-05-06T14:30:29.979Z,48.52
2023-05-06T14:32:56.569Z,49.55
2023-05-06T14:35:23.285Z,49.32
2023-05-06T14:37:50.001Z,50.78
2023-05-06T14:40:17.096Z,49.88
2023-05-06T14:45:11.727Z,52.31
2023-05-06T14:47:40.060Z,52.31
2023-05-06T14:50:09.577Z,54.63
2023-05-06T14:52:41.072Z,56.30
2023-05-06T14:55:10.163Z,57.16
2023-05-06T14:57:36.969Z,54.96
2023-05-06T15:00:08.576Z,57.72
2023-05-06T15:02:35.155Z,59.66
2023-05-06T15:05:03.950Z,59.31
2023-05-06T15:07:30.891Z,62.89
2023-05-06T15:09:57.479Z,61.10
2023-05-06T15:12:24.071Z,60.76
2023-05-06T15:14:50.618Z,62.25
2023-05-06T15:17:17.204Z,62.29
2023-05-06T15:19:43.753Z,60.93
2023-05-06T15:22:10.342Z,60.06
2023-05-06T15:24:37.006Z,59.70
2023-05-06T15:27:03.674Z,59.80
2023-05-06T15:29:30.333Z,60.98
2023-05-06T15:31:56.941Z,61.62
2023-05-06T15:34:24.516Z,62.40
2023-05-06T15:36:53.318Z,62.67
2023-05-06T15:39:20.152Z,62.05
2023-05-06T15:41:47.446Z,62.95
2023-05-06T15:44:16.320Z,62.48
2023-05-06T15:46:43.591Z,61.86
2023-05-06T15:49:40.360Z,61.09
2023-05-06T15:51:59.070Z,61.59
2023-05-06T15:54:27.370Z,61.61
2023-05-06T15:56:53.959Z,61.44
2023-05-06T15:59:20.629Z,61.11
2023-05-06T16:04:17.047Z,58.69
2023-05-06T16:06:43.814Z,56.58
2023-05-06T16:09:10.453Z,54.15
2023-05-06T16:11:37.057Z,53.36
2023-05-06T16:14:04.127Z,47.64
2023-05-06T16:16:30.799Z,48.37
2023-05-06T16:18:57.441Z,49.90
2023-05-06T16:21:24.066Z,47.85
2023-05-06T16:23:50.820Z,46.27
2023-05-06T16:26:17.610Z,44.92
2023-05-06T16:28:45.665Z,44.83
2023-05-06T16:31:12.301Z,47.08
2023-05-06T16:33:39.026Z,50.49
2023-05-06T16:36:06.156Z,51.05
2023-05-06T16:38:32.723Z,51.46
2023-05-06T16:40:59.304Z,54.19
2023-05-06T16:43:25.983Z,55.73
2023-05-06T16:45:52.547Z,59.22
2023-05-06T16:48:19.165Z,60.46
2023-05-06T16:50:46.017Z,61.99
2023-05-06T16:53:12.759Z,64.26
2023-05-06T16:55:39.729Z,63.94
2023-05-06T16:58:06.368Z,65.18
2023-05-06T17:00:33.052Z,65.88
2023-05-06T17:02:59.857Z,68.08
2023-05-06T17:05:28.015Z,69.51
2023-05-06T17:07:54.586Z,69.65
2023-05-06T17:10:22.009Z,70.39
2023-05-06T17:12:48.710Z,71.27
2023-05-06T17:15:16.062Z,72.10
2023-05-06T17:17:42.801Z,72.43
2023-05-06T17:20:09.938Z,72.45
2023-05-06T17:22:37.369Z,71.50
2023-05-06T17:25:04.233Z,73.65
2023-05-06T17:27:30.907Z,74.15
2023-05-06T17:29:58.589Z,75.24
2023-05-06T17:32:25.496Z,75.13
2023-05-06T17:34:52.221Z,75.29
2023-05-06T17:37:18.816Z,77.50
2023-05-06T17:39:46.343Z,78.00
2023-05-06T17:42:13.446Z,78.14
2023-05-06T17:44:42.630Z,79.61
2023-05-06T17:47:10.019Z,79.35
2023-05-06T17:49:36.857Z,81.54
2023-05-06T17:52:03.660Z,81.20
2023-05-06T17:54:34.829Z,80.85
2023-05-06T17:57:03.353Z,81.52
2023-05-06T17:59:30.061Z,81.64
2023-05-06T18:01:56.750Z,81.87
2023-05-06T18:04:23.537Z,82.01
2023-05-06T18:06:50.124Z,81.58
2023-05-06T18:09:16.718Z,83.18
2023-05-06T18:11:44.276Z,82.68
2023-05-06T18:14:11.385Z,84.30
2023-05-06T18:16:38.111Z,84.18
2023-05-06T18:19:05.287Z,84.30
2023-05-06T18:21:33.981Z,84.38
2023-05-06T18:24:10.244Z,84.92
2023-05-06T18:26:45.354Z,85.73
2023-05-06T18:29:12.746Z,85.11
2023-05-06T18:31:39.481Z,85.41
2023-05-06T18:34:06.144Z,85.58
2023-05-06T18:36:33.603Z,87.21
2023-05-06T18:39:01.294Z,85.92
2023-05-06T18:41:27.939Z,85.96
2023-05-06T18:43:54.556Z,86.33
2023-05-06T18:46:21.484Z,86.83
2023-05-06T18:48:48.231Z,88.22
2023-05-06T18:51:17.326Z,87.70
2023-05-06T18:53:44.864Z,86.96
2023-05-06T18:56:14.137Z,88.14
2023-05-06T18:58:41.055Z,88.81
2023-05-06T19:01:09.203Z,89.39
2023-05-06T19:03:36.405Z,89.60
2023-05-06T19:06:04.741Z,90.25
2023-05-06T19:08:32.253Z,90.12
2023-05-06T19:10:59.698Z,90.37
2023-05-06T19:13:26.640Z,90.34
2023-05-06T19:15:54.420Z,89.02
2023-05-06T19:18:21.023Z,89.37
2023-05-06T19:20:47.608Z,89.76
2023-05-06T19:23:14.160Z,89.48
2023-05-06T19:25:40.924Z,90.24
2023-05-06T19:28:07.586Z,90.88
2023-05-06T19:30:35.488Z,90.37
2023-05-06T19:33:02.477Z,91.00
2023-05-06T19:35:29.228Z,92.33
2023-05-06T19:37:56.181Z,91.90
2023-05-06T19:40:22.947Z,91.31
2023-05-06T19:42:49.693Z,91.52
2023-05-06T19:45:18.805Z,90.76
2023-05-06T19:47:45.887Z,90.24
2023-05-06T19:50:13.083Z,89.38
2023-05-06T19:52:39.959Z,88.81
2023-05-06T19:55:07.188Z,88.55
2023-05-06T19:57:34.015Z,88.17
2023-05-06T20:00:05.432Z,87.44
2023-05-06T20:02:32.957Z,87.29
2023-05-06T20:05:00.676Z,86.99
2023-05-06T20:07:27.592Z,86.99
2023-05-06T20:09:56.041Z,87.16
2023-05-06T20:12:24.290Z,86.79
2023-05-06T20:14:50.881Z,86.94
2023-05-06T20:17:17.447Z,86.79
2023-05-06T20:19:45.417Z,87.19
2023-05-06T20:22:12.308Z,88.79
2023-05-06T20:24:43.751Z,90.63
2023-05-06T20:27:10.687Z,89.36
2023-05-06T20:29:37.273Z,89.97
2023-05-06T20:32:04.284Z,91.36
2023-05-06T20:34:31.445Z,90.40
2023-05-06T20:36:58.214Z,89.12
2023-05-06T20:39:24.859Z,89.37
2023-05-06T20:41:51.513Z,89.26
2023-05-06T20:44:18.060Z,91.16
2023-05-06T20:46:44.672Z,91.99
2023-05-06T20:49:11.792Z,92.72
2023-05-06T20:51:38.428Z,92.54
2023-05-06T20:54:05.009Z,93.85
2023-05-06T20:56:31.661Z,94.19
2023-05-06T20:58:58.255Z,92.20
2023-05-06T21:01:43.749Z,92.86
2023-05-06T21:04:10.473Z,92.55
2023-05-06T21:06:37.122Z,92.57
2023-05-06T21:09:03.790Z,93.44
2023-05-06T21:11:30.370Z,93.51
2023-05-06T21:13:57.871Z,94.31
2023-05-06T21:16:24.580Z,94.59
2023-05-06T21:18:51.385Z,95.05
2023-05-06T21:21:18.056Z,95.31
2023-05-06T21:23:44.679Z,94.52
2023-05-06T21:26:12.661Z,94.52
2023-05-06T21:28:39.226Z,93.23
2023-05-06T21:31:05.863Z,92.92
2023-05-06T21:33:32.741Z,92.42
2023-05-06T21:35:59.506Z,91.81
2023-05-06T21:38:27.841Z,91.12
2023-05-06T21:40:55.056Z,91.86
2023-05-06T21:43:21.713Z,92.35
2023-05-06T21:45:48.289Z,92.98
2023-05-06T21:48:14.900Z,93.08
2023-05-06T21:50:41.466Z,92.92
2023-05-06T21:53:08.080Z,93.28
2023-05-06T21:55:34.758Z,94.57
2023-05-06T21:58:01.440Z,93.63
2023-05-06T22:00:28.182Z,93.28
2023-05-06T22:02:54.935Z,94.01
2023-05-06T22:05:21.605Z,95.32
2023-05-06T22:07:48.319Z,95.77
2023-05-06T22:10:15.031Z,96.34
2023-05-06T22:12:41.710Z,97.35
2023-05-06T22:15:09.302Z,97.65
2023-05-06T22:17:36.597Z,97.77
2023-05-06T22:20:04.521Z,97.54
2023-05-06T22:22:31.639Z,97.75
2023-05-06T22:24:58.237Z,98.42
2023-05-06T22:27:24.905Z,99.78
2023-05-06T22:29:51.476Z,100.00
2023-05-06T22:32:18.353Z,99.08
2023-05-06T22:34:44.934Z,100.00
2023-05-06T22:37:11.515Z,100.00
2023-05-06T22:39:39.141Z,100.00
2023-05-06T22:42:05.724Z,100.00
2023-05-06T22:44:32.638Z,100.00
2023-05-06T22:46:59.294Z,100.00
2023-05-06T22:49:28.904Z,100.00
2023-05-06T22:51:56.999Z,100.00
2023-05-06T22:54:24.574Z,100.00
2023-05-06T22:56:51.355Z,100.00
2023-05-06T22:59:18.101Z,100.00
2023-05-06T23:01:44.809Z,100.00
2023-05-06T23:04:11.622Z,100.00
2023-05-06T23:06:39.943Z,100.00
2023-05-06T23:09:07.820Z,100.00
2023-05-06T23:11:34.493Z,100.00
2023-05-06T23:14:01.302Z,100.00
2023-05-06T23:16:29.532Z,100.00
2023-05-06T23:18:59.544Z,100.00
2023-05-06T23:21:26.781Z,100.00
2023-05-06T23:23:53.378Z,100.00
2023-05-06T23:26:19.963Z,100.00
2023-05-06T23:28:46.514Z,100.00
2023-05-06T23:31:13.226Z,100.00
2023-05-06T23:33:39.865Z,100.00
2023-05-06T23:36:08.154Z,100.00
2023-05-06T23:38:34.820Z,100.00
2023-05-06T23:41:01.448Z,100.00
2023-05-06T23:43:28.012Z,100.00
2023-05-06T23:45:54.611Z,100.00
2023-05-06T23:48:21.165Z,100.00
2023-05-06T23:50:48.792Z,100.00
2023-05-06T23:53:15.338Z,100.00
2023-05-06T23:55:42.942Z,100.00
2023-05-06T23:58:09.719Z,100.00
